Time;durP1;ratioP1;P1;durP2;ratioP2;P2;SDS_P1;SDS_P2;PMS_P1;PMS_P2;Temp;Humidity;BMP_temperature;BMP_pressure;BME280_temperature;BME280_humidity;BME280_pressure;Samples;Min_cycle;Max_cycle;Signal;HPM_P1;HPM_P2
2022/11/03 00:00:32;;;;;;;3.15;0.88;;;17.50;85.90;;;;;;5139742;27;20015;-79
2022/11/03 00:02:58;;;;;;;3.40;1.00;;;17.50;86.10;;;;;;5132967;27;20026;-79
2022/11/03 00:08:07;;;;;;;3.63;1.00;;;17.40;86.20;;;;;;5138304;27;20416;-78
2022/11/03 00:10:33;;;;;;;2.33;0.90;;;17.50;86.00;;;;;;5127720;27;20023;-79
2022/11/03 00:12:58;;;;;;;3.60;1.33;;;17.50;86.10;;;;;;5128626;27;20022;-78
2022/11/03 00:15:24;;;;;;;3.65;1.10;;;17.50;86.30;;;;;;5137023;27;20058;-78
2022/11/03 00:17:50;;;;;;;4.00;1.08;;;17.40;86.20;;;;;;5121552;27;20026;-79
2022/11/03 00:20:15;;;;;;;2.47;1.00;;;17.50;86.10;;;;;;5152351;27;20377;-79
2022/11/03 00:22:41;;;;;;;3.42;1.02;;;17.40;85.50;;;;;;5145753;27;20094;-79
2022/11/03 00:25:06;;;;;;;3.40;1.20;;;17.40;86.30;;;;;;5138998;27;20098;-78
2022/11/03 00:27:32;;;;;;;3.35;1.00;;;17.40;86.30;;;;;;5125388;27;20031;-79
2022/11/03 00:29:57;;;;;;;3.13;1.10;;;17.50;86.60;;;;;;5118996;27;20031;-79
2022/11/03 00:32:23;;;;;;;3.65;1.05;;;17.40;86.30;;;;;;5137388;27;20027;-78
2022/11/03 00:34:49;;;;;;;3.25;0.98;;;17.50;86.00;;;;;;5118694;27;20079;-78
2022/11/03 00:37:14;;;;;;;2.65;0.90;;;17.50;86.30;;;;;;5120897;27;20073;-79
2022/11/03 00:39:40;;;;;;;4.75;1.15;;;17.50;84.60;;;;;;5126597;27;20504;-80
2022/11/03 00:42:05;;;;;;;3.58;1.10;;;17.50;84.60;;;;;;5146247;27;20106;-78
2022/11/03 00:44:31;;;;;;;2.67;1.00;;;17.50;84.70;;;;;;5137606;27;20437;-78
2022/11/03 00:46:56;;;;;;;4.75;0.95;;;17.50;84.10;;;;;;5133486;27;20055;-79
2022/11/03 00:49:22;;;;;;;3.63;1.30;;;17.60;83.70;;;;;;5139248;27;20404;-79
2022/11/03 00:51:47;;;;;;;3.17;0.80;;;17.50;83.50;;;;;;5130436;27;20026;-79
2022/11/03 00:54:13;;;;;;;3.67;1.10;;;17.50;85.10;;;;;;5118651;27;20114;-79
2022/11/03 00:56:40;;;;;;;3.55;1.40;;;17.50;85.20;;;;;;5118420;27;20041;-79
2022/11/03 00:59:08;;;;;;;3.63;1.20;;;17.50;85.70;;;;;;5120221;27;20023;-81
2022/11/03 01:01:39;;;;;;;4.32;1.10;;;17.40;85.70;;;;;;5141331;27;20015;-81
2022/11/03 01:06:52;;;;;;;3.22;0.98;;;17.40;85.90;;;;;;5140426;27;20088;-81
2022/11/03 01:09:23;;;;;;;3.78;1.10;;;17.40;85.90;;;;;;5140166;27;20023;-81
2022/11/03 01:11:52;;;;;;;;;;;17.40;86.00;;;;;;5138317;27;20054;-77
2022/11/03 01:14:18;;;;;;;3.67;1.00;;;17.40;85.90;;;;;;5138339;27;19933;-80
2022/11/03 01:16:44;;;;;;;4.38;1.00;;;17.40;85.70;;;;;;5121232;27;20022;-80
2022/11/03 01:19:09;;;;;;;4.15;1.15;;;17.40;85.50;;;;;;5124693;27;20023;-80
2022/11/03 01:21:35;;;;;;;3.33;1.08;;;17.40;85.70;;;;;;5133479;27;20031;-81
2022/11/03 01:24:01;;;;;;;3.63;1.10;;;17.40;86.00;;;;;;5131802;27;20031;-78
2022/11/03 01:26:27;;;;;;;3.08;0.98;;;17.40;86.00;;;;;;5159465;27;20627;-80
2022/11/03 01:28:53;;;;;;;3.88;1.17;;;17.40;85.80;;;;;;5138837;27;20062;-81
2022/11/03 01:31:21;;;;;;;2.58;1.15;;;17.40;85.60;;;;;;5130698;27;20045;-81
2022/11/03 01:33:49;;;;;;;3.58;1.10;;;17.50;84.60;;;;;;5140384;27;20088;-80
2022/11/03 01:36:15;;;;;;;2.17;0.80;;;17.50;84.60;;;;;;5123158;27;20030;-79
2022/11/03 01:38:41;;;;;;;4.03;1.08;;;17.50;84.80;;;;;;5119624;27;20019;-80
2022/11/03 01:41:12;;;;;;;3.00;0.95;;;17.50;85.10;;;;;;5120121;27;20015;-79
2022/11/03 01:43:38;;;;;;;4.43;1.10;;;17.50;85.40;;;;;;5137662;27;20459;-78
2022/11/03 01:46:10;;;;;;;3.17;1.10;;;17.40;85.20;;;;;;5118681;27;20038;-79
2022/11/03 01:48:37;;;;;;;;;;;17.40;85.50;;;;;;5120543;27;20019;-79
2022/11/03 01:51:05;;;;;;;3.33;1.00;;;17.40;85.50;;;;;;5129637;27;19907;-79
2022/11/03 01:53:31;;;;;;;4.30;1.13;;;17.40;85.50;;;;;;5128139;27;20533;-80
2022/11/03 01:55:58;;;;;;;4.25;1.10;;;17.40;85.50;;;;;;5128150;27;20019;-79
2022/11/03 01:58:31;;;;;;;3.50;1.00;;;17.40;85.50;;;;;;5138097;27;20067;-79
2022/11/03 02:00:59;;;;;;;2.92;1.13;;;17.40;85.80;;;;;;5156811;27;20019;-81
2022/11/03 02:03:27;;;;;;;3.42;1.10;;;17.40;85.80;;;;;;5127497;27;20034;-79
2022/11/03 02:05:54;;;;;;;3.42;1.00;;;17.40;85.80;;;;;;5132900;27;20022;-81
2022/11/03 02:08:45;;;;;;;4.05;1.20;;;17.40;85.80;;;;;;5137673;27;20346;-80
2022/11/03 02:13:56;;;;;;;4.03;1.00;;;17.40;85.40;;;;;;5126865;27;20030;-78
2022/11/03 02:16:23;;;;;;;3.03;1.10;;;17.40;85.60;;;;;;5136413;27;20027;-79
2022/11/03 02:18:52;;;;;;;2.58;1.10;;;17.40;85.90;;;;;;5140359;27;20022;-79
2022/11/03 02:21:20;;;;;;;3.20;0.90;;;17.40;85.80;;;;;;5137883;27;20052;-80
2022/11/03 02:24:04;;;;;;;2.97;1.10;;;17.40;85.60;;;;;;5137950;27;20023;-80
2022/11/03 02:26:30;;;;;;;2.63;0.95;;;17.40;85.10;;;;;;5156185;27;20416;-79
2022/11/03 02:28:55;;;;;;;4.47;1.10;;;17.40;84.80;;;;;;5137374;27;20034;-79
2022/11/03 02:31:47;;;;;;;2.65;1.10;;;17.40;84.50;;;;;;5137711;27;20037;-79
2022/11/03 02:34:33;;;;;;;4.10;1.30;;;17.40;83.40;;;;;;5136769;27;20050;-79
2022/11/03 02:37:03;;;;;;;3.05;1.10;;;17.40;83.70;;;;;;5156178;27;20011;-78
2022/11/03 02:39:45;;;;;;;3.22;0.90;;;17.40;84.50;;;;;;5155581;27;20015;-80
2022/11/03 02:42:13;;;;;;;3.92;0.93;;;17.40;85.10;;;;;;5156177;27;20097;-81
2022/11/03 02:44:41;;;;;;;3.83;1.10;;;17.40;85.00;;;;;;5137071;27;20033;-79
2022/11/03 02:47:10;;;;;;;5.18;1.40;;;17.40;85.40;;;;;;5154958;27;20042;-79
2022/11/03 02:49:44;;;;;;;3.00;0.90;;;17.40;85.60;;;;;;5155759;27;20094;-79
2022/11/03 02:52:36;;;;;;;2.38;0.90;;;17.40;85.60;;;;;;5155976;27;20033;-79
2022/11/03 02:55:11;;;;;;;2.95;1.00;;;17.40;85.70;;;;;;5136064;27;20033;-79
2022/11/03 02:57:44;;;;;;;2.17;0.90;;;17.30;85.60;;;;;;5122789;27;20408;-79
2022/11/03 03:00:11;;;;;;;3.80;1.20;;;17.30;85.60;;;;;;5153071;27;20075;-79
2022/11/03 03:03:01;;;;;;;3.97;1.00;;;17.30;85.70;;;;;;5123530;27;20027;-78
2022/11/03 03:05:30;;;;;;;4.18;1.30;;;17.30;85.60;;;;;;5134783;27;20034;-79
2022/11/03 03:08:03;;;;;;;2.58;0.80;;;17.30;85.60;;;;;;5132210;27;20030;-79
2022/11/03 03:10:41;;;;;;;2.40;0.90;;;17.30;85.60;;;;;;5114138;28;20050;-79
2022/11/03 03:13:09;;;;;;;2.60;0.95;;;17.40;85.80;;;;;;5095809;28;20054;-78
2022/11/03 03:15:54;;;;;;;3.75;0.90;;;17.30;85.60;;;;;;5100403;27;20027;-79
2022/11/03 03:18:26;;;;;;;3.33;0.90;;;17.30;85.50;;;;;;5124451;27;20072;-79
2022/11/03 03:21:13;;;;;;;4.30;1.20;;;17.40;84.80;;;;;;5134248;27;20015;-79
2022/11/03 03:23:48;;;;;;;4.07;1.20;;;17.40;83.90;;;;;;5095578;28;20031;-79
2022/11/03 03:26:27;;;;;;;3.67;1.33;;;17.40;83.80;;;;;;5132893;27;20026;-80
2022/11/03 03:29:00;;;;;;;2.75;0.90;;;17.40;83.50;;;;;;5135275;27;21471;-79
2022/11/03 03:31:29;;;;;;;2.47;0.90;;;17.40;83.20;;;;;;5145941;27;20027;-79
2022/11/03 03:33:57;;;;;;;2.65;0.80;;;17.40;83.90;;;;;;5136663;27;20058;-81
2022/11/03 03:36:24;;;;;;;4.55;1.17;;;17.40;84.70;;;;;;5105344;27;20129;-81
2022/11/03 03:38:59;;;;;;;3.70;1.10;;;17.40;84.00;;;;;;5138928;27;20484;-80
2022/11/03 03:41:27;;;;;;;3.38;1.00;;;17.30;84.10;;;;;;5131005;28;20027;-81
2022/11/03 03:43:57;;;;;;;3.03;1.00;;;17.30;85.00;;;;;;5115428;28;20090;-79
2022/11/03 03:46:28;;;;;;;2.90;0.95;;;17.30;85.00;;;;;;5128128;27;20060;-81
2022/11/03 03:48:53;;;;;;;3.03;1.10;;;17.30;85.20;;;;;;5120527;28;20071;-80
2022/11/03 03:51:23;;;;;;;3.20;1.10;;;17.30;85.40;;;;;;5137965;27;20522;-81
2022/11/03 03:53:51;;;;;;;2.72;0.98;;;17.30;85.40;;;;;;5134011;27;20373;-80
2022/11/03 03:56:24;;;;;;;4.30;1.20;;;17.30;85.40;;;;;;5136556;28;20016;-80
2022/11/03 03:58:50;;;;;;;4.45;1.20;;;17.30;84.80;;;;;;5136562;28;20020;-79
2022/11/03 04:01:15;;;;;;;3.60;1.10;;;17.30;84.90;;;;;;5136681;28;20549;-79
2022/11/03 04:03:41;;;;;;;2.78;0.82;;;17.30;84.80;;;;;;5136294;28;20110;-79
2022/11/03 04:06:07;;;;;;;2.20;0.88;;;17.30;85.00;;;;;;5116953;28;20642;-80
2022/11/03 04:08:33;;;;;;;2.47;0.90;;;17.30;85.40;;;;;;5117112;28;20038;-79
2022/11/03 04:24:39;;;;;;;3.83;1.00;;;17.40;83.40;;;;;;5135311;27;20057;-78
2022/11/03 04:27:17;;;;;;;4.05;1.15;;;17.40;84.10;;;;;;5135253;28;20027;-80
2022/11/03 04:29:43;;;;;;;3.47;0.95;;;17.30;84.30;;;;;;5130379;27;20400;-78
2022/11/03 04:32:16;;;;;;;2.67;1.10;;;17.30;84.50;;;;;;5123456;27;20023;-80
2022/11/03 04:34:41;;;;;;;3.38;1.30;;;17.30;84.30;;;;;;5123842;28;20035;-80
2022/11/03 04:37:12;;;;;;;3.08;1.20;;;17.30;84.90;;;;;;5152850;27;20044;-79
2022/11/03 04:39:38;;;;;;;3.47;1.13;;;17.30;85.10;;;;;;5154887;27;20029;-78
2022/11/03 04:42:20;;;;;;;3.33;1.20;;;17.30;85.00;;;;;;5138078;27;20014;-79
2022/11/03 04:44:47;;;;;;;3.50;1.10;;;17.20;85.70;;;;;;5144337;27;20034;-79
2022/11/03 04:47:15;;;;;;;3.08;0.90;;;17.20;85.20;;;;;;5159015;27;20035;-79
2022/11/03 04:49:41;;;;;;;3.45;1.02;;;17.20;85.00;;;;;;5140007;27;20077;-79
2022/11/03 04:52:19;;;;;;;2.97;0.98;;;17.20;84.60;;;;;;5139728;27;20076;-78
2022/11/03 04:54:48;;;;;;;2.78;0.98;;;17.30;84.90;;;;;;5122375;27;20023;-78
2022/11/03 04:57:14;;;;;;;3.13;1.02;;;17.20;84.80;;;;;;5137460;27;20384;-78
2022/11/03 04:59:45;;;;;;;3.42;1.00;;;17.20;85.20;;;;;;5137655;27;20384;-80
2022/11/03 05:02:17;;;;;;;2.63;0.93;;;17.20;85.40;;;;;;5142578;27;20019;-79
2022/11/03 05:04:43;;;;;;;3.60;1.13;;;17.20;85.50;;;;;;5133057;27;20272;-80
2022/11/03 05:07:29;;;;;;;4.85;1.13;;;17.20;85.00;;;;;;5138930;27;20022;-78
2022/11/03 05:09:55;;;;;;;2.97;1.10;;;17.30;84.90;;;;;;5157540;27;20033;-84
2022/11/03 05:12:21;;;;;;;3.58;1.10;;;17.30;84.40;;;;;;5136557;27;20253;-78
2022/11/03 05:14:46;;;;;;;3.22;1.20;;;17.30;83.80;;;;;;5147900;27;20019;-78
2022/11/03 05:17:24;;;;;;;2.92;1.10;;;17.30;83.50;;;;;;5129543;27;20031;-75
2022/11/03 05:20:02;;;;;;;4.22;1.38;;;17.30;83.10;;;;;;5113986;27;20035;-77
2022/11/03 05:22:34;;;;;;;3.38;1.05;;;17.30;84.10;;;;;;5133986;27;20034;-79
2022/11/03 05:25:02;;;;;;;3.63;1.00;;;17.30;83.70;;;;;;5116067;27;20499;-77
2022/11/03 05:27:28;;;;;;;5.43;1.30;;;17.30;83.60;;;;;;5125587;27;20496;-78
2022/11/03 05:29:58;;;;;;;3.20;1.10;;;17.20;83.80;;;;;;5142352;27;20058;-77
2022/11/03 05:32:28;;;;;;;4.47;1.30;;;17.30;84.50;;;;;;5128155;27;20034;-76
2022/11/03 05:34:54;;;;;;;3.67;1.10;;;17.30;85.00;;;;;;5127287;27;20553;-78
2022/11/03 05:37:33;;;;;;;3.17;1.25;;;17.20;84.60;;;;;;5128459;27;20023;-76
2022/11/03 05:40:13;;;;;;;3.17;1.10;;;17.20;84.50;;;;;;5127421;27;20060;-76
2022/11/03 05:42:41;;;;;;;3.42;1.10;;;17.20;83.90;;;;;;5126912;27;20023;-77
2022/11/03 05:45:19;;;;;;;3.97;1.00;;;17.20;84.30;;;;;;5111707;27;20031;-79
2022/11/03 05:47:45;;;;;;;3.10;1.23;;;17.20;84.70;;;;;;5108226;28;20027;-78
2022/11/03 05:50:24;;;;;;;4.05;1.00;;;17.20;84.20;;;;;;5092423;28;20913;-77
2022/11/03 05:53:15;;;;;;;3.13;1.10;;;17.20;84.90;;;;;;5126136;27;20027;-76
2022/11/03 05:55:42;;;;;;;4.90;1.20;;;17.30;84.80;;;;;;5106958;27;20038;-78
2022/11/03 05:58:27;;;;;;;3.25;1.00;;;17.20;84.90;;;;;;5109713;27;20733;-77
2022/11/03 06:00:54;;;;;;;4.20;1.23;;;17.20;84.80;;;;;;5130298;27;20023;-77
2022/11/03 06:03:26;;;;;;;4.57;1.17;;;17.20;84.60;;;;;;5116694;27;20033;-78
2022/11/03 06:05:52;;;;;;;3.92;1.38;;;17.30;84.00;;;;;;5111282;27;20091;-77
2022/11/03 06:08:20;;;;;;;4.18;1.15;;;17.20;83.10;;;;;;5130864;27;20039;-78
2022/11/03 06:10:50;;;;;;;3.17;1.00;;;17.30;83.70;;;;;;5116441;27;20052;-79
2022/11/03 06:13:20;;;;;;;3.03;1.00;;;17.30;82.90;;;;;;5120406;27;20034;-80
2022/11/03 06:15:49;;;;;;;3.45;1.20;;;17.30;83.20;;;;;;5118502;27;20042;-79
2022/11/03 06:18:21;;;;;;;4.32;1.30;;;17.20;83.50;;;;;;5121679;27;20103;-78
2022/11/03 06:21:06;;;;;;;;;;;17.30;84.10;;;;;;5148017;27;20080;-78
2022/11/03 06:23:34;;;;;;;3.45;1.10;;;17.20;83.70;;;;;;5105711;27;20428;-79
2022/11/03 06:26:01;;;;;;;3.92;1.23;;;17.20;84.00;;;;;;5119712;27;20031;-77
2022/11/03 06:28:35;;;;;;;6.28;1.15;;;17.20;84.20;;;;;;5139505;27;20184;-83
2022/11/03 06:31:03;;;;;;;4.78;1.30;;;17.20;83.40;;;;;;5129232;27;20380;-79
2022/11/03 06:33:33;;;;;;;3.72;1.05;;;17.10;83.20;;;;;;5102082;27;20031;-77
2022/11/03 06:36:05;;;;;;;3.78;1.20;;;17.20;83.20;;;;;;5110515;27;20034;-78
2022/11/03 06:38:34;;;;;;;4.43;1.27;;;17.20;83.80;;;;;;5109959;27;20821;-80
2022/11/03 06:40:59;;;;;;;4.30;1.10;;;17.10;83.60;;;;;;5111090;27;20030;-78
2022/11/03 06:43:39;;;;;;;3.72;1.27;;;17.20;83.70;;;;;;5131479;27;20071;-78
2022/11/03 06:46:32;;;;;;;5.40;1.05;;;17.10;83.10;;;;;;5110526;27;20492;-79
2022/11/03 06:49:03;;;;;;;5.75;1.20;;;17.10;83.20;;;;;;5109280;27;20107;-77
2022/11/03 06:51:29;;;;;;;4.00;1.20;;;17.10;83.80;;;;;;5130094;27;20011;-79
2022/11/03 06:53:59;;;;;;;4.07;1.20;;;17.10;83.90;;;;;;5129467;27;20035;-77
2022/11/03 06:56:30;;;;;;;4.38;1.40;;;17.20;84.10;;;;;;5110913;27;20034;-79
2022/11/03 06:58:56;;;;;;;6.85;1.70;;;17.20;83.60;;;;;;5111678;27;20385;-78
2022/11/03 07:01:25;;;;;;;5.07;1.52;;;17.20;82.90;;;;;;5111083;27;20504;-78
2022/11/03 07:03:56;;;;;;;4.65;1.20;;;17.20;82.40;;;;;;5129953;27;20027;-78
2022/11/03 07:06:26;;;;;;;7.65;1.50;;;17.20;82.60;;;;;;5130071;27;20030;-78
2022/11/03 07:08:57;;;;;;;3.65;1.23;;;17.30;82.60;;;;;;5111795;27;20057;-78
2022/11/03 07:11:29;;;;;;;5.20;1.27;;;17.20;82.90;;;;;;5129867;27;20499;-77
2022/11/03 07:14:11;;;;;;;4.72;1.33;;;17.20;83.50;;;;;;5111283;27;20031;-78
2022/11/03 07:16:41;;;;;;;3.55;1.23;;;17.20;83.70;;;;;;5111593;27;20027;-77
2022/11/03 07:19:17;;;;;;;4.15;1.13;;;17.20;83.90;;;;;;5129788;27;20035;-78
2022/11/03 07:21:48;;;;;;;5.15;1.23;;;17.20;83.90;;;;;;5111616;28;20280;-79
2022/11/03 07:24:28;;;;;;;2.92;1.13;;;17.20;84.00;;;;;;5130019;27;20049;-78
2022/11/03 07:27:01;;;;;;;4.50;1.10;;;17.20;83.90;;;;;;5111055;27;20401;-78
2022/11/03 07:29:29;;;;;;;4.85;1.25;;;17.20;84.20;;;;;;5130058;27;20084;-77
2022/11/03 07:31:58;;;;;;;2.70;1.17;;;17.20;84.00;;;;;;5110536;27;20023;-77
2022/11/03 07:34:28;;;;;;;4.10;1.50;;;17.20;84.10;;;;;;5129572;27;20122;-77
2022/11/03 07:36:56;;;;;;;5.28;1.38;;;17.20;84.30;;;;;;5130567;28;20012;-78
2022/11/03 07:39:22;;;;;;;3.53;1.05;;;17.20;84.20;;;;;;5110939;28;20025;-78
2022/11/03 07:41:48;;;;;;;4.05;1.13;;;17.20;84.20;;;;;;5129607;28;20020;-77
2022/11/03 07:44:21;;;;;;;4.38;1.13;;;17.20;84.30;;;;;;5110619;28;20027;-78
2022/11/03 07:46:49;;;;;;;3.42;1.10;;;17.20;84.20;;;;;;5110518;28;20393;-78
2022/11/03 07:49:26;;;;;;;4.07;1.13;;;17.20;84.40;;;;;;5128762;28;20112;-79
2022/11/03 07:51:55;;;;;;;3.72;1.10;;;17.20;84.00;;;;;;5129806;28;20491;-81
2022/11/03 07:54:24;;;;;;;3.47;1.15;;;17.20;83.90;;;;;;5131919;28;20037;-80
2022/11/03 07:57:04;;;;;;;3.38;1.10;;;17.30;84.10;;;;;;5131684;28;20110;-78
2022/11/03 07:59:34;;;;;;;2.63;1.08;;;17.30;83.70;;;;;;5129786;28;20026;-77
2022/11/03 08:02:01;;;;;;;3.38;1.20;;;17.30;83.60;;;;;;5111649;28;20053;-78
2022/11/03 08:04:31;;;;;;;3.88;1.20;;;17.30;83.70;;;;;;5128288;28;20027;-77
2022/11/03 08:06:56;;;;;;;2.67;1.10;;;17.30;83.80;;;;;;5109220;28;20492;-77
2022/11/03 08:09:22;;;;;;;3.88;1.02;;;17.30;83.60;;;;;;5109550;28;20026;-78
2022/11/03 08:11:48;;;;;;;2.50;1.00;;;17.30;83.80;;;;;;5128035;28;20035;-78
2022/11/03 08:14:14;;;;;;;3.22;1.20;;;17.40;83.60;;;;;;5109345;28;20031;-77
2022/11/03 08:16:40;;;;;;;4.32;1.25;;;17.30;83.60;;;;;;5110486;27;20033;-77
2022/11/03 08:19:06;;;;;;;3.67;1.20;;;17.30;83.60;;;;;;5113476;27;20110;-78
2022/11/03 08:21:32;;;;;;;3.00;1.02;;;17.20;83.70;;;;;;5114225;27;20047;-77
2022/11/03 08:23:58;;;;;;;2.95;1.02;;;17.30;83.90;;;;;;5132102;27;20124;-78
2022/11/03 08:26:23;;;;;;;4.78;1.30;;;17.30;83.90;;;;;;5112621;27;20037;-77
2022/11/03 08:28:51;;;;;;;4.32;1.30;;;17.30;84.10;;;;;;5112908;27;20045;-79
2022/11/03 08:31:17;;;;;;;4.07;1.30;;;17.30;83.80;;;;;;5111966;27;20054;-79
2022/11/03 08:33:42;;;;;;;2.60;1.00;;;17.30;83.70;;;;;;5131505;27;20058;-79
2022/11/03 08:36:08;;;;;;;3.47;1.23;;;17.30;83.90;;;;;;5131324;27;20118;-78
2022/11/03 08:38:34;;;;;;;2.90;1.10;;;17.30;83.80;;;;;;5131439;27;20015;-79
2022/11/03 08:41:00;;;;;;;3.33;1.20;;;17.30;83.90;;;;;;5113119;27;20118;-78
2022/11/03 08:43:26;;;;;;;5.40;1.30;;;17.30;83.80;;;;;;5131991;27;20551;-78
2022/11/03 08:45:54;;;;;;;3.40;1.23;;;17.30;83.90;;;;;;5112280;27;20087;-76
2022/11/03 08:48:28;;;;;;;3.58;1.20;;;17.30;84.00;;;;;;5112405;27;20094;-77
2022/11/03 08:50:54;;;;;;;3.53;1.23;;;17.40;84.30;;;;;;5112552;27;20091;-78
2022/11/03 08:53:24;;;;;;;4.70;1.23;;;17.40;84.20;;;;;;5131270;27;20079;-78
2022/11/03 08:55:51;;;;;;;4.40;1.27;;;17.40;84.00;;;;;;5131277;27;20042;-77
2022/11/03 08:58:16;;;;;;;3.88;1.20;;;17.40;84.10;;;;;;5112135;27;20030;-78
2022/11/03 09:00:42;;;;;;;2.15;0.95;;;17.40;84.00;;;;;;5113746;27;20023;-80
2022/11/03 09:03:07;;;;;;;3.00;1.25;;;17.40;83.70;;;;;;5117307;27;20035;-80
2022/11/03 09:05:33;;;;;;;3.88;1.20;;;17.40;83.50;;;;;;5135241;27;20031;-79
2022/11/03 09:07:58;;;;;;;3.45;1.10;;;17.40;83.80;;;;;;5133605;27;20069;-77
2022/11/03 09:10:25;;;;;;;3.97;1.40;;;17.40;84.10;;;;;;5133690;27;20080;-80
2022/11/03 09:12:51;;;;;;;2.90;0.90;;;17.50;84.70;;;;;;5114966;27;20504;-80
2022/11/03 09:15:17;;;;;;;3.20;1.00;;;17.40;84.20;;;;;;5132627;27;20054;-79
2022/11/03 09:17:42;;;;;;;2.88;1.00;;;17.40;84.30;;;;;;5132057;27;20114;-78
2022/11/03 09:20:08;;;;;;;2.90;1.10;;;17.30;84.20;;;;;;5131993;27;20027;-78
2022/11/03 09:22:34;;;;;;;3.33;1.38;;;17.30;84.30;;;;;;5113159;27;20174;-79
2022/11/03 09:25:00;;;;;;;1.80;0.90;;;17.30;84.30;;;;;;5113154;27;20087;-79
2022/11/03 09:27:25;;;;;;;2.83;1.00;;;17.30;84.40;;;;;;5130574;27;20348;-78
2022/11/03 09:29:51;;;;;;;2.45;0.95;;;17.30;84.40;;;;;;5112443;27;20059;-78
2022/11/03 09:32:17;;;;;;;3.17;1.20;;;17.30;84.60;;;;;;5131006;27;20033;-77
2022/11/03 09:43:08;;;;;;;3.13;1.38;;;18.70;85.30;;;;;;5009560;28;20225;-79
2022/11/03 09:45:43;;;;;;;2.00;0.90;;;17.60;84.70;;;;;;4991895;28;20053;-80
2022/11/03 09:52:27;;;;;;;2.70;1.10;;;17.40;84.80;;;;;;4948185;28;20453;-79
2022/11/03 09:57:38;;;;;;;2.92;1.00;;;17.40;84.60;;;;;;807335;26;20380;-79
2022/11/03 10:09:44;;;;;;;2.65;1.10;;;17.40;84.50;;;;;;5006006;28;20570;-78
2022/11/03 10:12:52;;;;;;;3.75;0.95;;;18.40;85.10;;;;;;4989572;28;20037;-79
2022/11/03 10:16:00;;;;;;;;;;;;;;;;;;;;;
2022/11/03 10:19:17;;;;;;;3.08;1.13;;;17.30;84.50;;;;;;5074670;28;20025;-80
2022/11/03 10:26:34;;;;;;;2.90;1.00;;;17.40;84.70;;;;;;5006512;28;20524;-80
2022/11/03 10:29:26;;;;;;;3.88;1.23;;;17.30;84.70;;;;;;4969901;28;20035;-78
2022/11/03 10:32:14;;;;;;;3.67;1.10;;;17.70;84.90;;;;;;4970711;28;20026;-78
2022/11/03 10:35:33;;;;;;;3.42;1.08;;;17.20;84.90;;;;;;4969662;28;20049;-80
2022/11/03 10:38:33;;;;;;;2.60;1.13;;;17.30;84.80;;;;;;4955780;28;20121;-77
2022/11/03 10:41:20;;;;;;;2.92;1.20;;;17.30;84.70;;;;;;5011791;28;20513;-77
2022/11/03 10:44:17;;;;;;;2.25;1.05;;;17.30;84.80;;;;;;5032388;28;20032;-77
2022/11/03 10:46:59;;;;;;;3.42;1.00;;;17.20;84.60;;;;;;5032225;28;20036;-78
2022/11/03 10:49:26;;;;;;;3.65;1.30;;;17.40;84.70;;;;;;5031715;28;20478;-78
2022/11/03 10:51:53;;;;;;;2.58;0.98;;;17.30;84.60;;;;;;5032736;28;20032;-77
2022/11/03 10:54:22;;;;;;;2.40;1.02;;;17.30;84.70;;;;;;5032366;28;20047;-79
2022/11/03 10:56:49;;;;;;;2.13;1.00;;;17.30;84.80;;;;;;5031539;28;20024;-79
2022/11/03 10:59:21;;;;;;;3.10;1.10;;;17.40;84.70;;;;;;5031248;28;20064;-80
2022/11/03 11:01:47;;;;;;;3.65;1.13;;;17.30;84.40;;;;;;5032083;28;20033;-78
2022/11/03 11:04:15;;;;;;;3.45;1.10;;;17.40;84.40;;;;;;5031483;28;20041;-79
2022/11/03 11:06:41;;;;;;;2.60;1.10;;;17.30;84.40;;;;;;5032499;28;20053;-79
2022/11/03 11:09:14;;;;;;;2.13;1.00;;;17.40;84.40;;;;;;5032983;28;20063;-79
2022/11/03 11:12:17;;;;;;;2.63;1.10;;;17.30;84.60;;;;;;5050185;28;20094;-78
2022/11/03 11:15:01;;;;;;;2.70;1.20;;;17.30;84.80;;;;;;5032614;28;20087;-77
2022/11/03 11:17:44;;;;;;;4.00;1.23;;;17.30;84.90;;;;;;5050258;28;20024;-79
2022/11/03 11:20:20;;;;;;;2.45;1.00;;;17.30;84.60;;;;;;5048772;28;20036;-80
2022/11/03 11:22:46;;;;;;;2.85;1.10;;;17.30;84.90;;;;;;5048995;28;20147;-78
2022/11/03 11:25:18;;;;;;;2.45;1.00;;;17.30;84.80;;;;;;5082662;23;20033;-79
2022/11/03 11:28:43;;;;;;;2.75;1.10;;;17.30;84.80;;;;;;5070836;28;20028;-78
2022/11/03 11:31:44;;;;;;;3.30;1.05;;;17.30;84.70;;;;;;5048009;28;20153;-79
2022/11/03 11:34:26;;;;;;;2.05;1.10;;;17.30;84.60;;;;;;5072913;28;20084;-79
2022/11/03 11:37:41;;;;;;;2.28;1.02;;;17.20;84.60;;;;;;5033615;28;20141;-78
2022/11/03 11:40:34;;;;;;;2.42;0.90;;;17.30;84.90;;;;;;5024319;28;20116;-78
2022/11/03 11:43:18;;;;;;;2.78;1.08;;;17.20;84.70;;;;;;5033643;28;20448;-80
2022/11/03 11:46:20;;;;;;;1.85;0.93;;;17.20;84.70;;;;;;5034410;28;20028;-79
2022/11/03 11:49:00;;;;;;;3.50;1.10;;;17.20;84.80;;;;;;5031311;28;20163;-78
2022/11/03 11:51:26;;;;;;;2.45;1.02;;;17.20;84.20;;;;;;5035045;28;20037;-80
2022/11/03 11:53:51;;;;;;;2.92;1.13;;;17.20;84.90;;;;;;5036927;28;20021;-84
2022/11/03 11:56:17;;;;;;;3.47;1.10;;;17.20;84.80;;;;;;5038416;28;20025;-82
2022/11/03 11:58:54;;;;;;;2.13;1.13;;;17.20;84.00;;;;;;5053099;28;20036;-78
2022/11/03 12:01:34;;;;;;;2.75;1.10;;;17.20;84.60;;;;;;5038077;28;20038;-79
2022/11/03 12:04:19;;;;;;;2.03;0.88;;;17.30;84.40;;;;;;5033968;28;20021;-79
2022/11/03 12:06:44;;;;;;;3.72;1.15;;;17.30;84.00;;;;;;5051665;28;20025;-80
2022/11/03 12:09:18;;;;;;;2.80;1.10;;;17.30;83.50;;;;;;5031838;28;20026;-80
2022/11/03 12:11:54;;;;;;;2.13;1.00;;;17.30;84.20;;;;;;5016209;28;20075;-80
2022/11/03 12:14:20;;;;;;;4.35;1.10;;;17.30;84.30;;;;;;5015757;28;20479;-78
2022/11/03 12:16:46;;;;;;;3.35;1.17;;;17.30;84.60;;;;;;5030981;28;20089;-80
2022/11/03 12:19:34;;;;;;;1.92;1.00;;;17.30;84.50;;;;;;5012551;28;20100;-79
2022/11/03 12:22:01;;;;;;;2.85;1.10;;;17.30;84.30;;;;;;5015508;28;20578;-80
2022/11/03 12:24:29;;;;;;;2.83;1.15;;;17.20;84.40;;;;;;5032657;28;20479;-78
2022/11/03 12:26:55;;;;;;;2.65;1.02;;;17.20;84.20;;;;;;5033609;28;20041;-79
2022/11/03 12:29:21;;;;;;;2.38;1.00;;;17.20;84.50;;;;;;5014792;28;20029;-79
2022/11/03 12:31:47;;;;;;;2.03;1.08;;;17.20;84.60;;;;;;5033389;28;20026;-79
2022/11/03 12:34:13;;;;;;;3.30;1.20;;;17.20;84.50;;;;;;5015251;28;20026;-79
2022/11/03 12:36:38;;;;;;;3.05;1.10;;;17.20;84.40;;;;;;5015667;28;20047;-82
2022/11/03 12:39:04;;;;;;;17.17;2.70;;;17.20;84.20;;;;;;5034254;28;20021;-83
2022/11/03 12:41:29;;;;;;;15.80;2.67;;;17.20;81.30;;;;;;5034455;28;20021;-84
2022/11/03 12:43:55;;;;;;;13.73;2.90;;;17.20;79.10;;;;;;5016098;28;20124;-79
2022/11/03 12:46:21;;;;;;;13.68;2.30;;;17.10;76.50;;;;;;5015400;28;20569;-79
2022/11/03 12:48:47;;;;;;;11.45;2.78;;;17.00;76.20;;;;;;5015206;28;20053;-77
2022/11/03 12:51:15;;;;;;;8.93;2.40;;;17.00;75.80;;;;;;5015928;28;20032;-78
2022/11/03 12:53:41;;;;;;;9.07;2.05;;;17.00;76.30;;;;;;5033222;28;20040;-79
2022/11/03 12:56:07;;;;;;;10.30;2.50;;;16.90;75.80;;;;;;5056380;22;20135;-79
2022/11/03 12:58:33;;;;;;;23.42;3.58;;;16.90;75.90;;;;;;5055016;28;20028;-79
2022/11/03 13:00:59;;;;;;;11.95;2.38;;;16.90;76.20;;;;;;5073812;28;20021;-78
2022/11/03 13:03:24;;;;;;;12.10;2.70;;;16.70;75.80;;;;;;5054871;28;20068;-79
2022/11/03 13:05:50;;;;;;;8.48;2.45;;;16.90;76.00;;;;;;5054985;28;20028;-79
2022/11/03 13:08:15;;;;;;;8.95;2.50;;;16.90;75.60;;;;;;5071871;28;20073;-78
2022/11/03 13:10:41;;;;;;;7.15;2.10;;;16.90;75.40;;;;;;5054974;28;20032;-79
2022/11/03 13:13:06;;;;;;;12.68;2.40;;;16.90;75.20;;;;;;5072923;28;21074;-78
2022/11/03 13:15:32;;;;;;;8.40;2.33;;;16.90;74.80;;;;;;5072147;28;20120;-78
2022/11/03 13:17:57;;;;;;;9.70;2.00;;;16.90;74.80;;;;;;5053955;28;20027;-79
2022/11/03 13:20:23;;;;;;;8.63;2.17;;;16.90;75.00;;;;;;5072534;28;20024;-78
2022/11/03 13:22:49;;;;;;;6.55;1.92;;;16.90;75.10;;;;;;5054341;28;20020;-78
2022/11/03 13:25:15;;;;;;;8.43;2.15;;;16.90;75.20;;;;;;5054047;28;20078;-78
2022/11/03 13:27:40;;;;;;;6.68;2.30;;;16.90;75.30;;;;;;5052986;28;20248;-78
2022/11/03 13:30:07;;;;;;;5.65;1.98;;;16.90;75.20;;;;;;5071128;28;20032;-79
2022/11/03 13:32:32;;;;;;;6.63;2.03;;;16.80;74.80;;;;;;5053868;28;20078;-77
2022/11/03 13:34:58;;;;;;;7.63;2.30;;;16.80;74.80;;;;;;5053540;28;20029;-78
2022/11/03 13:37:24;;;;;;;7.00;1.90;;;16.80;75.00;;;;;;5054154;28;20032;-77
2022/11/03 13:39:49;;;;;;;8.07;2.10;;;16.80;75.10;;;;;;5054021;28;20032;-78
2022/11/03 13:42:15;;;;;;;6.80;2.25;;;16.80;75.10;;;;;;5054890;28;20032;-76
2022/11/03 13:44:40;;;;;;;7.80;2.20;;;16.80;74.90;;;;;;5053325;28;20091;-78
2022/11/03 13:47:06;;;;;;;7.32;2.10;;;16.80;74.70;;;;;;5053971;28;20082;-78
2022/11/03 13:49:31;;;;;;;6.68;1.95;;;16.70;74.50;;;;;;5072931;28;20036;-79
2022/11/03 13:51:57;;;;;;;7.80;2.10;;;16.80;75.30;;;;;;5054961;28;20093;-80
2022/11/03 13:54:22;;;;;;;7.85;2.10;;;16.80;75.20;;;;;;5054108;28;20032;-78
2022/11/03 13:56:48;;;;;;;8.15;2.20;;;16.90;75.90;;;;;;5072412;28;20048;-78
2022/11/03 13:59:13;;;;;;;5.40;1.90;;;16.90;75.20;;;;;;5054279;28;20562;-80